Time;durP1;ratioP1;P1;durP2;ratioP2;P2;SDS_P1;SDS_P2;PMS_P1;PMS_P2;Temp;Humidity;BMP_temperature;BMP_pressure;BME280_temperature;BME280_humidity;BME280_pressure;Samples;Min_cycle;Max_cycle;Signal;HPM_P1;HPM_P2
2021/07/26 00:02:16;;;;;;;24.77;16.10;;;;;;;17.28;90.62;100649.69;5028525;28;20033;-76
2021/07/26 00:04:42;;;;;;;26.33;15.45;;;;;;;17.25;90.74;100655.50;5028729;28;20187;-76
2021/07/26 00:07:08;;;;;;;20.83;15.50;;;;;;;17.25;90.95;100655.50;5028302;28;20116;-76
2021/07/26 00:09:34;;;;;;;23.52;18.23;;;;;;;17.29;91.24;100653.22;5028984;28;20381;-76
2021/07/26 00:12:00;;;;;;;22.55;16.73;;;;;;;17.30;91.44;100658.41;5028535;28;20029;-76
2021/07/26 00:14:25;;;;;;;28.00;18.13;;;;;;;17.34;91.24;100663.38;5045196;28;20148;-76
2021/07/26 00:16:50;;;;;;;23.13;17.23;;;;;;;17.31;91.14;100659.25;5029121;28;20029;-75
2021/07/26 00:19:16;;;;;;;21.80;15.73;;;;;;;17.28;90.85;100660.50;5029633;28;20128;-76
2021/07/26 00:21:41;;;;;;;25.00;15.83;;;;;;;17.27;91.06;100664.22;5029140;28;20121;-76
2021/07/26 00:24:06;;;;;;;21.43;15.97;;;;;;;17.23;90.76;100670.22;5012016;28;20116;-76
2021/07/26 00:26:32;;;;;;;25.47;16.63;;;;;;;17.27;91.66;100672.31;5029245;28;20128;-76
2021/07/26 00:28:57;;;;;;;21.10;16.10;;;;;;;17.27;91.37;100664.22;5028529;28;20436;-76
2021/07/26 00:31:22;;;;;;;23.40;17.33;;;;;;;17.27;91.09;100669.59;5029489;28;20478;-76
2021/07/26 00:34:23;;;;;;;24.60;17.17;;;;;;;17.26;91.38;100670.66;5029472;28;20323;-76
2021/07/26 00:36:50;;;;;;;25.30;16.15;;;;;;;17.25;91.22;100671.69;5031937;28;20446;-77
2021/07/26 00:39:18;;;;;;;29.05;17.80;;;;;;;17.25;91.41;100671.69;5032943;28;20059;-76
2021/07/26 00:41:44;;;;;;;29.90;17.98;;;;;;;17.23;91.33;100673.78;5031857;28;20048;-76
2021/07/26 00:44:10;;;;;;;23.17;17.38;;;;;;;17.22;91.73;100672.09;5032753;28;20470;-76
2021/07/26 00:46:35;;;;;;;23.33;15.10;;;;;;;17.20;91.54;100670.66;5031532;28;20041;-76
2021/07/26 00:49:04;;;;;;;21.50;16.63;;;;;;;17.18;91.24;100670.84;5031636;28;20045;-76
2021/07/26 00:51:31;;;;;;;22.88;15.35;;;;;;;17.18;90.70;100667.31;5032765;28;20370;-76
2021/07/26 00:53:56;;;;;;;18.13;14.40;;;;;;;17.15;91.18;100671.28;5031582;28;20038;-77
2021/07/26 00:56:23;;;;;;;21.98;15.60;;;;;;;17.18;91.23;100672.72;5031364;28;20048;-76
2021/07/26 00:58:49;;;;;;;24.10;15.80;;;;;;;17.16;91.37;100672.94;5032610;28;20029;-75
2021/07/26 01:01:15;;;;;;;27.70;15.98;;;;;;;17.15;91.19;100670.44;5032702;28;20044;-76
2021/07/26 01:03:43;;;;;;;24.93;16.97;;;;;;;17.08;91.15;100668.56;5031329;28;20050;-76
2021/07/26 01:06:10;;;;;;;28.73;16.95;;;;;;;17.05;91.41;100665.47;5031249;28;20113;-76
2021/07/26 01:08:36;;;;;;;19.50;15.30;;;;;;;17.04;91.56;100653.00;5031191;28;20041;-76
2021/07/26 01:11:03;;;;;;;19.77;15.10;;;;;;;17.04;91.55;100661.09;5032395;28;20041;-76
2021/07/26 01:13:30;;;;;;;24.17;16.40;;;;;;;17.03;91.56;100659.44;5031079;28;20363;-77
2021/07/26 01:15:55;;;;;;;26.38;16.85;;;;;;;17.04;91.61;100659.25;5031000;28;20043;-76
2021/07/26 01:18:24;;;;;;;21.42;16.33;;;;;;;17.06;91.43;100664.44;5032203;28;20038;-76
2021/07/26 01:20:55;;;;;;;24.02;16.73;;;;;;;17.07;91.55;100660.72;5031181;28;20059;-76
2021/07/26 01:23:22;;;;;;;23.27;15.95;;;;;;;17.07;91.38;100672.31;5031933;28;20037;-76
2021/07/26 01:25:48;;;;;;;23.40;15.95;;;;;;;17.04;91.55;100669.19;5030665;28;20159;-76
2021/07/26 01:28:16;;;;;;;22.73;16.13;;;;;;;17.04;91.76;100664.66;5014590;28;20470;-76
2021/07/26 01:30:43;;;;;;;24.00;15.38;;;;;;;17.03;91.27;100672.94;5032002;28;20657;-76
2021/07/26 01:33:10;;;;;;;21.60;16.40;;;;;;;16.99;91.18;100661.72;5031965;28;20033;-75
2021/07/26 01:35:36;;;;;;;28.10;18.75;;;;;;;17.00;91.80;100660.69;5031675;28;20071;-76
2021/07/26 01:38:01;;;;;;;22.15;16.75;;;;;;;17.00;91.20;100670.66;5030669;28;20527;-76
2021/07/26 01:40:28;;;;;;;21.53;16.03;;;;;;;16.97;91.34;100657.56;5030822;28;20065;-76
2021/07/26 01:43:01;;;;;;;25.83;16.35;;;;;;;16.91;90.81;100659.25;5047521;28;20631;-76
2021/07/26 01:45:27;;;;;;;19.58;15.10;;;;;;;16.88;90.93;100659.66;5031227;28;20362;-76
2021/07/26 01:47:58;;;;;;;23.38;16.95;;;;;;;16.86;91.08;100659.84;5029745;28;20052;-76
2021/07/26 01:50:23;;;;;;;21.38;15.65;;;;;;;16.79;90.96;100653.63;5030687;28;20056;-76
2021/07/26 01:52:49;;;;;;;21.90;14.77;;;;;;;16.81;91.00;100653.41;5030644;28;20034;-76
2021/07/26 01:55:15;;;;;;;20.73;15.70;;;;;;;16.77;90.85;100661.06;5029417;28;20042;-76
2021/07/26 01:57:42;;;;;;;21.90;16.30;;;;;;;16.78;91.05;100654.63;5030353;28;20028;-76
2021/07/26 02:00:07;;;;;;;23.63;18.77;;;;;;;16.85;91.67;100657.34;5047264;28;20045;-76
2021/07/26 02:02:33;;;;;;;21.55;16.52;;;;;;;16.80;91.22;100657.97;5031055;28;20053;-76
2021/07/26 02:04:58;;;;;;;24.37;16.37;;;;;;;16.77;91.06;100652.97;5031472;28;20025;-78
2021/07/26 02:07:24;;;;;;;23.63;15.90;;;;;;;16.71;91.06;100644.88;5030098;28;20037;-76
2021/07/26 02:09:52;;;;;;;24.08;16.90;;;;;;;16.64;90.93;100658.34;5031314;28;20037;-76
2021/07/26 02:12:17;;;;;;;17.88;14.40;;;;;;;16.58;90.97;100651.91;5030777;28;20040;-76
2021/07/26 02:14:43;;;;;;;21.03;15.50;;;;;;;16.58;91.04;100643.00;5031177;28;20033;-79
2021/07/26 02:17:08;;;;;;;19.30;15.60;;;;;;;16.61;91.41;100642.56;5029752;28;20478;-76
2021/07/26 02:19:34;;;;;;;25.77;16.23;;;;;;;16.64;91.07;100648.38;5030111;28;20112;-76
2021/07/26 02:22:00;;;;;;;20.17;15.45;;;;;;;16.60;91.29;100641.75;5029854;28;20040;-76
2021/07/26 02:24:25;;;;;;;28.77;18.33;;;;;;;16.61;91.64;100642.56;5031011;28;20033;-76
2021/07/26 02:26:50;;;;;;;22.53;16.17;;;;;;;16.58;91.17;100643.00;5029604;28;20053;-76
2021/07/26 02:29:16;;;;;;;24.33;16.97;;;;;;;16.54;91.19;100645.25;5030189;28;20037;-76
2021/07/26 02:31:41;;;;;;;16.40;13.63;;;;;;;16.53;91.82;100642.75;5029819;28;20070;-76
2021/07/26 02:34:07;;;;;;;25.73;15.97;;;;;;;16.46;91.24;100640.91;5030838;28;20047;-76
2021/07/26 02:36:32;;;;;;;22.27;14.77;;;;;;;16.51;91.38;100647.53;5030677;28;20037;-76
2021/07/26 02:38:58;;;;;;;23.05;16.98;;;;;;;16.52;91.64;100643.81;5029778;28;20033;-76
2021/07/26 02:41:23;;;;;;;24.08;15.05;;;;;;;16.44;91.88;100645.66;5029674;28;20052;-76
2021/07/26 02:43:49;;;;;;;19.90;14.97;;;;;;;16.36;91.69;100645.81;5029497;28;20032;-76
2021/07/26 02:46:14;;;;;;;23.37;15.43;;;;;;;16.38;91.04;100643.75;5029084;28;20037;-76
2021/07/26 02:48:40;;;;;;;22.77;17.17;;;;;;;16.49;92.06;100652.31;5029408;28;20141;-75
2021/07/26 02:51:06;;;;;;;28.37;18.90;;;;;;;16.49;92.19;100650.44;5030773;28;20041;-76
2021/07/26 02:53:32;;;;;;;25.88;17.85;;;;;;;16.48;91.59;100650.63;5045886;28;20437;-76
2021/07/26 02:55:57;;;;;;;22.58;15.90;;;;;;;16.45;91.75;100654.56;5030262;28;20037;-76
2021/07/26 02:58:23;;;;;;;22.17;17.33;;;;;;;16.42;91.47;100660.38;5030354;28;20110;-76
2021/07/26 03:00:49;;;;;;;21.33;16.73;;;;;;;16.40;91.67;100657.03;5029773;28;20098;-76
2021/07/26 03:03:15;;;;;;;21.40;15.95;;;;;;;16.39;91.72;100666.16;5029112;28;20761;-75
2021/07/26 03:05:40;;;;;;;25.33;16.88;;;;;;;16.38;91.32;100653.72;5012947;28;20033;-76
2021/07/26 03:08:06;;;;;;;26.80;17.13;;;;;;;16.33;91.67;100657.00;5030134;28;20035;-76
2021/07/26 03:10:31;;;;;;;28.88;21.25;;;;;;;16.33;91.83;100657.00;5029308;28;20025;-76
2021/07/26 03:12:56;;;;;;;21.60;17.73;;;;;;;16.32;91.60;100671.53;5029454;28;20052;-76
2021/07/26 03:15:23;;;;;;;24.57;17.57;;;;;;;16.33;91.87;100667.78;5045690;28;20049;-76
2021/07/26 03:17:48;;;;;;;21.77;17.17;;;;;;;16.34;91.51;100663.22;5030024;28;20029;-75
2021/07/26 03:20:14;;;;;;;23.63;16.83;;;;;;;16.31;91.60;100656.38;5045953;28;20135;-76
2021/07/26 03:23:02;;;;;;;29.80;21.33;;;;;;;16.34;91.82;100661.38;5029297;28;20492;-76
2021/07/26 03:25:29;;;;;;;22.70;18.40;;;;;;;16.31;91.37;100653.69;5030077;28;20037;-76
2021/07/26 03:27:55;;;;;;;26.50;19.83;;;;;;;16.31;91.47;100660.94;5029180;28;20036;-75
2021/07/26 03:30:21;;;;;;;29.80;21.45;;;;;;;16.31;92.36;100664.47;5029192;28;20083;-76
2021/07/26 03:32:47;;;;;;;28.15;20.52;;;;;;;16.34;91.77;100658.69;5012715;28;20040;-75
2021/07/26 03:35:14;;;;;;;36.00;23.13;;;;;;;16.36;92.59;100661.16;5030004;28;20382;-76
2021/07/26 03:37:39;;;;;;;29.58;20.25;;;;;;;16.31;92.80;100659.06;5028691;28;20041;-75
2021/07/26 03:40:06;;;;;;;30.93;20.10;;;;;;;16.24;92.75;100656.34;5028995;28;20049;-75
2021/07/26 03:42:34;;;;;;;;;;;;;;;16.26;92.65;100661.56;5030558;28;20025;-76
2021/07/26 03:45:01;;;;;;;31.67;20.77;;;;;;;16.27;92.25;100662.38;5012363;28;19912;-75
2021/07/26 03:47:27;;;;;;;28.48;20.70;;;;;;;16.26;92.78;100666.94;5012039;28;20033;-75
2021/07/26 03:49:52;;;;;;;26.10;20.53;;;;;;;16.28;92.49;100661.38;5028978;28;20032;-76
2021/07/26 03:52:18;;;;;;;26.53;21.43;;;;;;;16.33;92.58;100662.41;5028999;28;20323;-76
2021/07/26 03:54:44;;;;;;;25.58;19.27;;;;;;;16.35;92.80;100664.91;5029958;28;20483;-75
2021/07/26 03:57:09;;;;;;;30.90;19.90;;;;;;;16.54;93.01;100663.28;5029620;28;20133;-76
2021/07/26 03:59:34;;;;;;;35.80;24.67;;;;;;;16.67;93.87;100666.03;5030175;28;20374;-75
2021/07/26 04:02:00;;;;;;;31.93;21.07;;;;;;;16.80;93.91;100674.16;5028678;28;20048;-75
2021/07/26 04:04:26;;;;;;;31.23;22.60;;;;;;;16.84;94.41;100679.97;5028972;28;20129;-75
2021/07/26 04:06:55;;;;;;;35.65;23.83;;;;;;;16.84;94.38;100674.59;5028610;28;20045;-75
2021/07/26 04:09:22;;;;;;;46.80;29.17;;;;;;;16.99;94.31;100669.00;5029594;28;20045;-75
2021/07/26 04:11:54;;;;;;;37.90;25.98;;;;;;;17.00;93.98;100679.59;5032432;28;20490;-75
2021/07/26 04:14:24;;;;;;;32.65;23.65;;;;;;;17.00;93.65;100678.75;5033568;28;20121;-75
2021/07/26 04:16:50;;;;;;;37.42;25.92;;;;;;;17.00;93.64;100673.38;5031793;28;20068;-75
2021/07/26 04:19:15;;;;;;;45.97;25.07;;;;;;;17.03;93.35;100679.16;5033575;28;20113;-75
2021/07/26 04:21:41;;;;;;;40.57;25.53;;;;;;;17.14;93.89;100684.97;5033291;28;20470;-75
2021/07/26 04:24:06;;;;;;;35.53;25.53;;;;;;;17.17;93.39;100680.00;5033332;28;20033;-75
2021/07/26 04:26:31;;;;;;;32.23;22.03;;;;;;;17.18;93.09;100687.03;5031925;28;20091;-75
2021/07/26 04:28:57;;;;;;;34.67;25.50;;;;;;;17.25;93.54;100693.25;5032499;28;20063;-75
2021/07/26 04:31:22;;;;;;;37.00;26.87;;;;;;;17.35;93.64;100697.41;5033156;28;20103;-75
2021/07/26 04:33:48;;;;;;;51.33;30.45;;;;;;;17.35;93.57;100698.25;5032168;28;20092;-75
2021/07/26 04:36:13;;;;;;;36.23;27.13;;;;;;;17.34;94.08;100695.75;5031929;28;20501;-75
2021/07/26 04:38:39;;;;;;;32.73;26.63;;;;;;;17.37;93.89;100695.34;5033155;28;20365;-75
2021/07/26 04:41:04;;;;;;;37.73;28.13;;;;;;;17.49;93.91;100696.38;5033310;28;20112;-74
2021/07/26 04:43:29;;;;;;;42.87;27.30;;;;;;;17.56;93.32;100696.34;5032923;28;20041;-76
2021/07/26 04:45:55;;;;;;;35.33;25.87;;;;;;;17.64;93.07;100705.06;5031504;28;20106;-75
2021/07/26 04:48:22;;;;;;;34.08;26.98;;;;;;;17.78;93.09;100694.25;5031943;28;20025;-75
2021/07/26 04:50:48;;;;;;;39.38;26.20;;;;;;;17.84;93.06;100696.13;5015650;28;20359;-75
2021/07/26 04:53:14;;;;;;;35.10;25.50;;;;;;;17.96;93.16;100688.19;5031705;28;20052;-75
2021/07/26 04:55:40;;;;;;;34.92;24.75;;;;;;;18.00;92.54;100692.16;5031952;28;20030;-75
2021/07/26 04:58:05;;;;;;;36.15;23.10;;;;;;;17.92;92.26;100690.50;5031580;28;20068;-75
2021/07/26 05:00:30;;;;;;;35.20;24.13;;;;;;;17.91;92.29;100688.84;5031782;28;20033;-76
2021/07/26 05:02:56;;;;;;;32.17;21.20;;;;;;;17.98;91.86;100691.53;5032618;28;20427;-75
2021/07/26 05:05:22;;;;;;;34.75;24.70;;;;;;;17.97;92.25;100696.09;5031853;28;20017;-76
2021/07/26 05:07:48;;;;;;;28.30;22.13;;;;;;;18.19;92.23;100695.81;5031604;28;20100;-76
2021/07/26 05:10:13;;;;;;;26.58;22.98;;;;;;;18.19;91.44;100690.41;5031489;28;20076;-75
2021/07/26 05:12:39;;;;;;;32.27;22.63;;;;;;;18.25;90.98;100697.66;5032558;28;20381;-76
2021/07/26 05:15:05;;;;;;;28.08;21.92;;;;;;;18.31;91.25;100696.81;5031375;28;20377;-75
2021/07/26 05:17:30;;;;;;;;;;;;;;;18.41;91.02;100680.97;5032783;28;20445;-75
2021/07/26 05:19:56;;;;;;;;;;;;;;;18.54;89.96;100685.47;5031663;28;19952;-75
2021/07/26 05:22:22;;;;;;;29.57;18.50;;;;;;;18.62;89.43;100687.09;5031316;28;20015;-76
2021/07/26 05:24:48;;;;;;;28.15;19.92;;;;;;;18.67;89.34;100688.09;5032081;28;20064;-76
2021/07/26 05:27:14;;;;;;;23.58;19.42;;;;;;;18.82;88.98;100677.00;5031326;28;20033;-76
2021/07/26 05:29:40;;;;;;;29.90;19.42;;;;;;;19.27;88.51;100682.28;5030768;28;20095;-76
2021/07/26 05:32:06;;;;;;;28.75;19.67;;;;;;;19.75;84.50;100681.63;5030285;28;20087;-76
2021/07/26 05:34:32;;;;;;;30.70;18.73;;;;;;;19.78;83.39;100674.94;5030947;28;20056;-76
2021/07/26 05:36:58;;;;;;;24.52;16.65;;;;;;;20.36;82.17;100670.91;5031180;28;20053;-76
2021/07/26 05:39:23;;;;;;;29.35;18.38;;;;;;;20.46;79.76;100676.59;5032056;28;20029;-76
2021/07/26 05:41:50;;;;;;;25.67;15.60;;;;;;;20.99;78.23;100675.84;5032040;28;20033;-77
2021/07/26 05:44:16;;;;;;;22.20;16.10;;;;;;;21.62;74.33;100673.56;5031714;28;20033;-76
2021/07/26 05:46:41;;;;;;;19.55;14.10;;;;;;;22.22;72.44;100681.41;5030931;28;20032;-76
2021/07/26 05:49:07;;;;;;;16.70;12.60;;;;;;;22.94;70.79;100680.00;5030979;28;20045;-76
2021/07/26 05:51:32;;;;;;;17.60;13.50;;;;;;;23.74;68.58;100686.19;5047249;28;20029;-76
2021/07/26 05:53:57;;;;;;;22.00;14.10;;;;;;;24.27;64.84;100681.97;5030306;28;20038;-76
2021/07/26 05:56:23;;;;;;;23.23;14.13;;;;;;;24.14;63.64;100683.19;5029513;28;20090;-77
2021/07/26 05:58:49;;;;;;;22.90;14.67;;;;;;;22.93;67.88;100686.53;5030174;28;20025;-76
2021/07/26 06:03:43;;;;;;;20.23;15.65;;;;;;;21.40;73.65;100676.91;5030965;28;20037;-76
2021/07/26 06:06:08;;;;;;;27.63;16.30;;;;;;;20.71;77.38;100684.63;5013443;28;20450;-75
2021/07/26 06:08:34;;;;;;;20.33;14.20;;;;;;;20.77;77.60;100677.47;5030387;28;20194;-77
2021/07/26 06:11:01;;;;;;;20.97;16.50;;;;;;;20.31;79.41;100681.63;5031263;28;20057;-76
2021/07/26 06:13:27;;;;;;;19.77;16.65;;;;;;;20.16;81.13;100688.28;5030282;28;20090;-77
2021/07/26 06:15:52;;;;;;;24.53;17.00;;;;;;;20.21;81.49;100680.28;5030824;28;20045;-76
2021/07/26 06:18:17;;;;;;;20.00;16.17;;;;;;;20.17;82.01;100678.25;5030140;28;20044;-76
2021/07/26 06:20:42;;;;;;;23.47;16.77;;;;;;;20.20;82.08;100661.53;5046863;28;20366;-76
2021/07/26 06:23:08;;;;;;;22.83;17.37;;;;;;;20.23;82.14;100677.34;5030762;28;20386;-76
2021/07/26 06:25:33;;;;;;;25.77;16.83;;;;;;;20.16;82.63;100672.00;5029882;28;20389;-75
2021/07/26 06:27:58;;;;;;;22.43;16.30;;;;;;;20.39;82.61;100682.16;5029681;28;20142;-76
2021/07/26 06:30:24;;;;;;;20.30;16.47;;;;;;;20.49;80.87;100676.16;5030162;28;20102;-77
2021/07/26 06:32:53;;;;;;;23.93;15.60;;;;;;;20.68;80.11;100679.69;5028913;28;20136;-76
2021/07/26 06:35:18;;;;;;;23.92;15.48;;;;;;;20.81;79.89;100681.34;5029120;28;20033;-76
2021/07/26 06:37:44;;;;;;;23.40;15.95;;;;;;;20.92;79.54;100677.03;5029571;28;20036;-77
2021/07/26 06:40:09;;;;;;;24.17;16.17;;;;;;;20.96;79.03;100681.75;5028564;28;20375;-76
2021/07/26 06:42:35;;;;;;;20.60;16.67;;;;;;;21.02;79.60;100686.25;5043342;28;20415;-76
2021/07/26 06:45:00;;;;;;;20.87;15.07;;;;;;;21.23;79.95;100686.75;5027820;28;20064;-76
2021/07/26 06:47:25;;;;;;;21.57;15.77;;;;;;;21.32;79.81;100690.78;5026157;28;20064;-76
2021/07/26 06:49:51;;;;;;;20.17;15.63;;;;;;;21.44;78.04;100694.34;5027936;28;20482;-76
2021/07/26 06:52:16;;;;;;;25.73;17.10;;;;;;;21.24;78.64;100689.25;5026780;28;20203;-76
2021/07/26 06:54:41;;;;;;;20.60;15.53;;;;;;;21.72;76.46;100690.09;5027595;28;20033;-76
2021/07/26 06:57:07;;;;;;;23.27;15.83;;;;;;;21.80;75.33;100688.94;5012162;28;20048;-76
2021/07/26 06:59:32;;;;;;;18.87;14.63;;;;;;;21.80;75.57;100697.91;5028762;28;20505;-76
2021/07/26 07:01:58;;;;;;;20.37;15.07;;;;;;;22.01;75.10;100687.44;5028799;28;20453;-76
2021/07/26 07:04:23;;;;;;;23.50;17.17;;;;;;;;;;5028476;28;20402;-76
2021/07/26 07:06:49;;;;;;;20.65;15.38;;;;;;;22.22;73.96;100696.88;5045313;28;20040;-76
2021/07/26 07:09:16;;;;;;;21.97;14.30;;;;;;;22.84;71.91;100696.97;5028608;28;20041;-76
2021/07/26 07:11:41;;;;;;;19.70;15.70;;;;;;;22.97;70.84;100690.41;5028571;28;20037;-76
2021/07/26 07:14:06;;;;;;;19.50;15.17;;;;;;;23.14;68.77;100685.00;5028271;28;20052;-76
2021/07/26 07:16:32;;;;;;;21.13;14.33;;;;;;;23.46;68.22;100681.66;5029431;28;20478;-76
2021/07/26 07:18:57;;;;;;;21.60;15.73;;;;;;;22.72;70.59;100686.16;5028250;28;20041;-76
2021/07/26 07:21:31;;;;;;;22.93;14.63;;;;;;;22.99;69.87;100688.28;5028950;28;20040;-76
2021/07/26 07:24:00;;;;;;;21.67;16.08;;;;;;;22.24;70.78;100686.59;5028451;28;20387;-76
2021/07/26 07:26:26;;;;;;;23.38;16.70;;;;;;;23.11;68.89;100689.06;5028343;28;20333;-76
2021/07/26 07:28:52;;;;;;;19.20;15.38;;;;;;;23.97;67.22;100690.59;5028415;28;20068;-76
2021/07/26 07:31:22;;;;;;;23.17;16.33;;;;;;;23.82;66.66;100685.78;5028361;28;20136;-76
2021/07/26 07:33:48;;;;;;;22.58;15.85;;;;;;;24.14;65.04;100685.91;5028269;28;20452;-76
2021/07/26 07:36:14;;;;;;;26.45;14.57;;;;;;;25.04;62.90;100685.50;5029194;28;20105;-76
2021/07/26 07:38:39;;;;;;;27.73;14.80;;;;;;;24.78;63.32;100690.72;5028579;28;20034;-77
2021/07/26 07:41:05;;;;;;;16.50;13.60;;;;;;;24.53;63.57;100680.38;5028341;28;20420;-76
2021/07/26 07:43:31;;;;;;;22.73;15.40;;;;;;;23.72;67.10;100685.63;5029229;28;20029;-76
2021/07/26 07:45:58;;;;;;;20.98;15.50;;;;;;;24.40;65.43;100687.03;5031523;28;20045;-76
2021/07/26 07:48:24;;;;;;;17.85;14.23;;;;;;;25.33;64.32;100690.66;5032559;28;20033;-76
2021/07/26 07:50:55;;;;;;;25.40;15.35;;;;;;;26.01;61.12;100690.81;5032211;28;20025;-76
2021/07/26 07:53:21;;;;;;;17.67;15.05;;;;;;;26.75;58.70;100686.97;5032136;28;20546;-76
2021/07/26 07:55:47;;;;;;;17.52;14.48;;;;;;;26.96;57.09;100685.06;5031967;28;20369;-76
2021/07/26 07:58:13;;;;;;;17.45;14.30;;;;;;;26.88;57.28;100689.16;5031991;28;20029;-76
2021/07/26 08:00:38;;;;;;;18.40;13.73;;;;;;;27.15;55.88;100690.81;5032130;28;20425;-76
2021/07/26 08:03:04;;;;;;;20.73;14.60;;;;;;;27.07;57.20;100681.22;5033154;28;20034;-76
2021/07/26 08:05:30;;;;;;;17.30;14.55;;;;;;;27.69;55.47;100689.41;5031891;28;20069;-76
2021/07/26 08:07:56;;;;;;;17.67;13.80;;;;;;;28.27;53.16;100688.94;5015486;28;20041;-76
2021/07/26 08:10:22;;;;;;;15.90;13.63;;;;;;;27.02;54.54;100685.88;5031988;28;20042;-76
2021/07/26 08:12:47;;;;;;;19.40;13.95;;;;;;;25.70;59.10;100687.91;5032735;28;20030;-76
2021/07/26 08:15:13;;;;;;;21.10;14.57;;;;;;;25.87;58.89;100691.31;5015112;28;20033;-76
2021/07/26 08:17:43;;;;;;;17.35;13.98;;;;;;;25.87;58.32;100687.72;5031566;28;20022;-76
2021/07/26 08:20:10;;;;;;;17.55;13.10;;;;;;;26.42;56.90;100688.22;5032455;28;20037;-76
2021/07/26 08:22:36;;;;;;;16.75;14.52;;;;;;;26.42;55.94;100691.78;5032678;28;20394;-76
2021/07/26 08:25:03;;;;;;;17.20;13.27;;;;;;;26.70;57.68;100696.00;5032087;28;20085;-76
2021/07/26 08:27:28;;;;;;;18.70;15.05;;;;;;;26.59;58.70;100696.25;5031194;28;20029;-76
2021/07/26 08:29:54;;;;;;;17.23;14.63;;;;;;;26.58;60.00;100686.41;5031881;28;20102;-76
2021/07/26 08:32:19;;;;;;;17.60;14.65;;;;;;;26.65;59.02;100686.94;5031301;28;20045;-76
2021/07/26 08:34:45;;;;;;;22.20;12.93;;;;;;;27.17;58.41;100685.88;5031444;28;20073;-76
2021/07/26 08:37:10;;;;;;;16.20;14.50;;;;;;;27.27;57.48;100687.81;5030904;28;20033;-76
2021/07/26 08:39:38;;;;;;;24.77;15.77;;;;;;;27.19;57.23;100685.63;5048073;28;20107;-76
2021/07/26 08:42:04;;;;;;;16.77;14.82;;;;;;;27.18;57.24;100690.25;5031047;28;20279;-76
2021/07/26 08:44:29;;;;;;;16.23;14.45;;;;;;;27.11;56.53;100684.22;5047730;28;20091;-76
2021/07/26 08:46:58;;;;;;;18.05;14.30;;;;;;;27.11;56.58;100684.22;5031428;28;20458;-76
2021/07/26 08:49:27;;;;;;;20.77;15.27;;;;;;;27.47;54.87;100687.81;5066704;22;20048;-83
2021/07/26 08:51:55;;;;;;;17.15;13.63;;;;;;;28.09;55.19;100696.69;5041248;28;20628;-85
2021/07/26 08:54:21;;;;;;;18.48;14.13;;;;;;;28.10;52.69;100689.28;5091769;28;20032;-87
2021/07/26 08:56:49;;;;;;;15.73;13.50;;;;;;;28.12;52.40;100696.16;5058418;28;20066;-86
2021/07/26 08:59:15;;;;;;;14.90;12.57;;;;;;;28.28;52.72;100687.81;5059478;28;20037;-87
2021/07/26 09:01:43;;;;;;;12.32;11.20;;;;;;;28.30;49.83;100683.69;5076963;28;20534;-88
2021/07/26 09:04:08;;;;;;;14.82;11.80;;;;;;;28.00;51.89;100692.88;5060029;28;20472;-88
2021/07/26 09:06:34;;;;;;;15.50;11.88;;;;;;;27.83;51.07;100689.63;5077469;28;20033;-87
2021/07/26 09:09:00;;;;;;;15.20;11.18;;;;;;;27.83;52.08;100682.25;5060105;28;20036;-88
2021/07/26 09:11:42;;;;;;;14.23;11.80;;;;;;;27.87;52.89;100688.00;5071331;28;20098;-84
2021/07/26 09:14:07;;;;;;;17.65;13.25;;;;;;;27.84;53.94;100691.28;5054753;28;20554;-87
2021/07/26 09:16:32;;;;;;;14.17;11.47;;;;;;;27.83;53.63;100686.88;5055571;28;20020;-84
2021/07/26 09:19:03;;;;;;;12.75;10.85;;;;;;;27.93;52.80;100689.63;5071932;28;20037;-85
2021/07/26 09:21:49;;;;;;;12.40;11.15;;;;;;;27.96;50.96;100689.88;5055141;28;20432;-85
2021/07/26 09:24:22;;;;;;;10.27;9.05;;;;;;;28.56;48.68;100689.88;5055016;28;20405;-85
2021/07/26 09:26:47;;;;;;;14.43;10.05;;;;;;;28.04;47.18;100688.47;5054737;28;20044;-86
2021/07/26 09:29:25;;;;;;;13.37;9.23;;;;;;;27.70;48.43;100697.34;5071532;28;20115;-85
2021/07/26 09:32:05;;;;;;;12.27;9.77;;;;;;;27.64;52.85;100697.63;5054966;28;20373;-84
2021/07/26 09:34:35;;;;;;;10.82;9.73;;;;;;;27.46;51.14;100710.00;5054639;28;20043;-85
2021/07/26 09:37:00;;;;;;;12.82;9.75;;;;;;;28.06;49.61;100697.25;5055001;28;20024;-86
2021/07/26 09:39:27;;;;;;;10.80;9.37;;;;;;;28.53;48.01;100714.34;5054730;28;20539;-85
2021/07/26 09:41:54;;;;;;;12.68;9.43;;;;;;;28.86;47.28;100696.28;5054652;28;20286;-85
2021/07/26 09:44:27;;;;;;;10.60;9.50;;;;;;;28.65;47.79;100701.09;5054636;28;20024;-84
2021/07/26 09:46:54;;;;;;;10.40;7.43;;;;;;;28.65;45.37;100692.84;5053967;28;20037;-85
2021/07/26 09:49:21;;;;;;;10.15;8.30;;;;;;;28.65;45.13;100714.00;5054259;28;20469;-85
2021/07/26 09:52:09;;;;;;;9.60;7.80;;;;;;;28.90;45.41;100718.53;5054390;28;20041;-86
2021/07/26 09:54:42;;;;;;;8.80;7.50;;;;;;;28.45;45.52;100718.50;5054139;28;20035;-85
2021/07/26 09:57:21;;;;;;;9.38;7.70;;;;;;;28.29;46.95;100725.97;5071182;28;20094;-85
2021/07/26 09:59:47;;;;;;;10.85;8.43;;;;;;;27.88;48.95;100709.66;5070783;28;20128;-84
2021/07/26 10:02:14;;;;;;;;;;;;;;;28.04;49.17;100729.63;5054415;28;20032;-86
2021/07/26 10:04:44;;;;;;;10.95;7.85;;;;;;;28.00;48.96;100731.28;5054146;28;19916;-86
2021/07/26 10:07:14;;;;;;;8.70;7.60;;;;;;;27.93;50.27;100722.53;5053063;28;20094;-82
2021/07/26 10:09:41;;;;;;;8.85;7.18;;;;;;;27.84;49.76;100738.78;5070616;28;20452;-82
2021/07/26 10:12:10;;;;;;;11.98;8.65;;;;;;;27.74;50.87;100736.81;5054103;28;20111;-82
2021/07/26 10:14:39;;;;;;;9.27;8.27;;;;;;;27.49;51.50;100717.69;5053944;28;20032;-82
2021/07/26 10:17:06;;;;;;;11.95;8.40;;;;;;;27.22;51.99;100729.75;5053957;28;20031;-83
2021/07/26 10:19:32;;;;;;;8.80;7.90;;;;;;;27.09;53.64;100742.06;5070676;28;20785;-84
2021/07/26 10:21:59;;;;;;;9.15;7.97;;;;;;;27.15;54.96;100737.41;5054080;28;20040;-82
2021/07/26 10:24:30;;;;;;;9.52;8.52;;;;;;;27.00;55.01;100735.47;5053533;28;20044;-82
2021/07/26 10:26:58;;;;;;;10.43;8.30;;;;;;;26.88;55.17;100730.25;5070346;28;20040;-82
2021/07/26 10:29:51;;;;;;;10.45;8.95;;;;;;;26.75;53.04;100733.50;5070201;28;20107;-82
2021/07/26 10:32:28;;;;;;;10.35;8.70;;;;;;;26.91;51.90;100735.19;5053771;28;20048;-82
2021/07/26 10:34:54;;;;;;;9.35;8.25;;;;;;;26.82;52.19;100725.84;5053422;28;20044;-83
2021/07/26 10:37:41;;;;;;;10.02;8.13;;;;;;;26.97;56.15;100732.44;5053547;28;20032;-82
2021/07/26 10:40:19;;;;;;;12.05;8.65;;;;;;;26.61;53.57;100740.59;5053639;28;20059;-82
2021/07/26 10:42:45;;;;;;;11.13;8.13;;;;;;;26.63;56.52;100733.75;5070316;28;20067;-82
2021/07/26 10:45:10;;;;;;;11.35;8.02;;;;;;;26.65;56.31;100734.31;5070293;28;20028;-83
2021/07/26 10:47:37;;;;;;;9.95;8.90;;;;;;;26.46;55.45;100725.75;5069876;28;20051;-82
2021/07/26 10:50:11;;;;;;;11.20;8.90;;;;;;;26.36;56.17;100728.44;5053297;28;20116;-82
2021/07/26 10:52:37;;;;;;;10.98;8.10;;;;;;;26.37;58.30;100730.09;5053492;28;20823;-83
2021/07/26 10:55:04;;;;;;;8.33;7.23;;;;;;;26.06;54.83;100721.75;5053091;28;20036;-82
2021/07/26 10:57:40;;;;;;;9.90;8.02;;;;;;;25.87;54.63;100728.75;5053382;28;20032;-82
2021/07/26 11:00:22;;;;;;;8.82;7.75;;;;;;;25.92;55.33;100734.28;5070455;28;20060;-82
2021/07/26 11:02:49;;;;;;;9.60;7.97;;;;;;;25.78;55.77;100741.25;5053667;28;20044;-82
2021/07/26 11:05:26;;;;;;;11.00;7.60;;;;;;;25.36;57.08;100744.81;5070265;28;20035;-83
2021/07/26 11:08:14;;;;;;;12.30;8.00;;;;;;;24.97;58.43;100737.59;5052879;28;20451;-83
2021/07/26 11:10:44;;;;;;;12.45;9.23;;;;;;;24.77;59.91;100745.56;5053079;28;20055;-83
2021/07/26 11:13:09;;;;;;;12.35;8.80;;;;;;;24.53;60.72;100750.50;5052912;28;20041;-82
2021/07/26 11:15:57;;;;;;;10.93;8.95;;;;;;;24.51;60.26;100748.00;5052904;28;20034;-82